Time;durP1;ratioP1;P1;durP2;ratioP2;P2;SDS_P1;SDS_P2;PMS_P1;PMS_P2;Temp;Humidity;BMP_temperature;BMP_pressure;BME280_temperature;BME280_humidity;BME280_pressure;Samples;Min_cycle;Max_cycle;Signal;HPM_P1;HPM_P2
2024/01/12 00:00:06;;;;;;;83.37;43.10;;;;;;;;;;5089206;28;20688;-62
2024/01/12 00:02:33;;;;;;;86.73;43.37;;;;;;;;;;5092082;28;20606;-63
2024/01/12 00:05:00;;;;;;;87.27;44.10;;;;;;;;;;5090718;28;20240;-62
2024/01/12 00:07:28;;;;;;;86.20;42.23;;;;;;;;;;5085578;28;20299;-62
2024/01/12 00:09:55;;;;;;;78.23;43.10;;;;;;;;;;5086853;28;20204;-62
2024/01/12 00:12:22;;;;;;;76.97;40.00;;;;;;;;;;5089894;28;20282;-63
2024/01/12 00:14:50;;;;;;;79.97;41.07;;;;;;;;;;5087291;28;20752;-63
2024/01/12 00:17:18;;;;;;;72.90;40.13;;;;;;;;;;5089511;28;20229;-63
2024/01/12 00:19:46;;;;;;;73.03;38.57;;;;;;;;;;5089038;28;20260;-62
2024/01/12 00:22:14;;;;;;;70.63;38.60;;;;;;;;;;5068508;28;20230;-63
2024/01/12 00:24:41;;;;;;;72.43;38.43;;;;;;;;;;5087797;28;20201;-62
2024/01/12 00:27:09;;;;;;;65.03;36.83;;;;;;;;;;5087139;28;20207;-63
2024/01/12 00:29:36;;;;;;;73.57;35.47;;;;;;;;;;5087530;28;20204;-62
2024/01/12 00:32:05;;;;;;;64.53;34.67;;;;;;;;;;5070039;28;20262;-62
2024/01/12 00:34:33;;;;;;;58.07;32.67;;;;;;;;;;5085131;28;20222;-62
2024/01/12 00:37:00;;;;;;;62.83;34.17;;;;;;;;;;5086611;28;20231;-62
2024/01/12 00:39:28;;;;;;;63.00;32.90;;;;;;;;;;5086621;28;20212;-62
2024/01/12 00:41:55;;;;;;;60.53;32.47;;;;;;;;;;5089122;28;20216;-62
2024/01/12 00:44:23;;;;;;;61.93;34.13;;;;;;;;;;5086495;28;20206;-63
2024/01/12 00:46:51;;;;;;;63.50;35.97;;;;;;;;;;5066774;28;20214;-62
2024/01/12 00:49:19;;;;;;;68.10;34.53;;;;;;;;;;5080534;28;20212;-63
2024/01/12 00:51:47;;;;;;;70.00;34.90;;;;;;;;;;5087680;28;20265;-62
2024/01/12 00:54:14;;;;;;;65.83;35.57;;;;;;;;;;5090712;28;20665;-62
2024/01/12 00:56:42;;;;;;;68.77;36.90;;;;;;;;;;5069307;28;20227;-62
2024/01/12 00:59:09;;;;;;;66.57;34.43;;;;;;;;;;5085621;28;20569;-61
2024/01/12 01:01:36;;;;;;;62.17;34.17;;;;;;;;;;5088348;28;20226;-63
2024/01/12 01:04:04;;;;;;;63.93;35.83;;;;;;;;;;5067682;28;20664;-61
2024/01/12 01:06:32;;;;;;;63.40;34.20;;;;;;;;;;5070291;28;20204;-63
2024/01/12 01:08:59;;;;;;;73.77;35.23;;;;;;;;;;5088915;28;20217;-64
2024/01/12 01:11:27;;;;;;;63.60;34.17;;;;;;;;;;5087216;28;20368;-63
2024/01/12 01:13:54;;;;;;;62.67;33.83;;;;;;;;;;5085800;28;20210;-63
2024/01/12 01:16:23;;;;;;;65.37;35.43;;;;;;;;;;5083337;28;20230;-62
2024/01/12 01:18:51;;;;;;;60.57;33.77;;;;;;;;;;5082033;28;20201;-63
2024/01/12 01:21:18;;;;;;;68.43;36.23;;;;;;;;;;5084867;28;20703;-63
2024/01/12 01:23:46;;;;;;;60.93;34.50;;;;;;;;;;5081499;28;20336;-63
2024/01/12 01:26:14;;;;;;;67.57;36.90;;;;;;;;;;5086374;28;20304;-62
2024/01/12 01:28:41;;;;;;;61.40;33.03;;;;;;;;;;5085021;28;20199;-63
2024/01/12 01:31:08;;;;;;;64.23;33.10;;;;;;;;;;5064512;28;20227;-63
2024/01/12 01:33:36;;;;;;;61.97;33.47;;;;;;;;;;5083540;28;20274;-62
2024/01/12 01:36:03;;;;;;;64.00;33.00;;;;;;;;;;5065332;28;20290;-63
2024/01/12 01:38:31;;;;;;;59.73;31.93;;;;;;;;;;5083349;28;20200;-63
2024/01/12 01:40:58;;;;;;;62.00;33.70;;;;;;;;;;5084238;28;22727;-62
2024/01/12 01:43:25;;;;;;;60.47;32.83;;;;;;;;;;5083167;28;20275;-63
2024/01/12 01:45:53;;;;;;;58.17;32.03;;;;;;;;;;5081759;28;20256;-61
2024/01/12 01:48:20;;;;;;;58.33;32.60;;;;;;;;;;5083845;28;20392;-62
2024/01/12 01:50:47;;;;;;;59.17;31.77;;;;;;;;;;5083521;28;20222;-62
2024/01/12 01:53:15;;;;;;;60.43;33.67;;;;;;;;;;5079702;28;20638;-63
2024/01/12 01:55:43;;;;;;;52.90;31.57;;;;;;;;;;5081843;28;20484;-62
2024/01/12 01:58:10;;;;;;;58.73;31.63;;;;;;;;;;5086052;28;20224;-62
2024/01/12 02:00:38;;;;;;;59.10;31.47;;;;;;;;;;5084743;28;20759;-63
2024/01/12 02:03:06;;;;;;;53.03;29.67;;;;;;;;;;5081996;28;20231;-63
2024/01/12 02:05:35;;;;;;;54.23;29.20;;;;;;;;;;5083373;28;20212;-63
2024/01/12 02:08:03;;;;;;;57.40;29.97;;;;;;;;;;5083394;28;20247;-62
2024/01/12 02:10:31;;;;;;;57.60;29.60;;;;;;;;;;5079162;28;20304;-62
2024/01/12 02:12:59;;;;;;;56.17;30.17;;;;;;;;;;5080295;28;20678;-63
2024/01/12 02:15:27;;;;;;;51.63;28.53;;;;;;;;;;5081976;28;20229;-62
2024/01/12 02:17:54;;;;;;;53.03;28.63;;;;;;;;;;5077501;28;20748;-62
2024/01/12 02:20:22;;;;;;;54.47;28.97;;;;;;;;;;5078637;28;20238;-61
2024/01/12 02:22:49;;;;;;;53.17;29.80;;;;;;;;;;5083184;28;20296;-62
2024/01/12 02:25:18;;;;;;;50.60;27.77;;;;;;;;;;5085021;28;20207;-62
2024/01/12 02:27:45;;;;;;;47.73;26.87;;;;;;;;;;5081204;28;20238;-62
2024/01/12 02:30:13;;;;;;;48.90;27.00;;;;;;;;;;5084829;28;20214;-62
2024/01/12 02:32:40;;;;;;;50.23;27.30;;;;;;;;;;5089591;28;20196;-63
2024/01/12 02:35:07;;;;;;;46.17;26.57;;;;;;;;;;5087691;28;20292;-63
2024/01/12 02:37:35;;;;;;;48.77;27.20;;;;;;;;;;5083488;28;20238;-63
2024/01/12 02:40:02;;;;;;;49.50;26.60;;;;;;;;;;5085931;28;20225;-62
2024/01/12 02:42:29;;;;;;;51.53;27.60;;;;;;;;;;5087403;28;20223;-63
2024/01/12 02:44:57;;;;;;;47.10;26.30;;;;;;;;;;5087347;28;20216;-65
2024/01/12 02:47:24;;;;;;;44.37;26.50;;;;;;;;;;5084710;28;20207;-64
2024/01/12 02:49:52;;;;;;;47.50;26.30;;;;;;;;;;5086289;28;20711;-63
2024/01/12 02:52:19;;;;;;;50.37;25.33;;;;;;;;;;5069979;28;20224;-63
2024/01/12 02:54:46;;;;;;;46.80;26.10;;;;;;;;;;5086789;28;20207;-63
2024/01/12 02:57:14;;;;;;;46.73;26.37;;;;;;;;;;5067657;28;20231;-63
2024/01/12 02:59:41;;;;;;;49.60;27.10;;;;;;;;;;5089018;28;20201;-63
2024/01/12 03:02:09;;;;;;;54.60;27.43;;;;;;;;;;5084823;28;20224;-63
2024/01/12 03:04:37;;;;;;;48.50;26.60;;;;;;;;;;5087348;28;20268;-62
2024/01/12 03:07:04;;;;;;;50.57;27.23;;;;;;;;;;5075296;28;20211;-63
2024/01/12 03:09:31;;;;;;;46.27;26.60;;;;;;;;;;5081192;28;20580;-61
2024/01/12 03:11:59;;;;;;;51.87;26.47;;;;;;;;;;5067965;28;20238;-61
2024/01/12 03:14:26;;;;;;;51.77;28.60;;;;;;;;;;5085720;28;20204;-63
2024/01/12 03:16:54;;;;;;;47.77;26.77;;;;;;;;;;5084181;28;20280;-64
2024/01/12 03:19:21;;;;;;;51.27;26.67;;;;;;;;;;5086620;28;20352;-62
2024/01/12 03:21:49;;;;;;;50.13;27.63;;;;;;;;;;5086689;28;20228;-61
2024/01/12 03:24:16;;;;;;;46.37;26.47;;;;;;;;;;5089591;28;20208;-64
2024/01/12 03:26:43;;;;;;;48.77;26.00;;;;;;;;;;5054347;28;20204;-62
2024/01/12 03:29:11;;;;;;;50.23;28.00;;;;;;;;;;5089896;28;20634;-61
2024/01/12 03:31:38;;;;;;;49.37;27.73;;;;;;;;;;5085397;28;20275;-63
2024/01/12 03:34:06;;;;;;;53.63;29.13;;;;;;;;;;5087711;28;20254;-64
2024/01/12 03:36:34;;;;;;;52.37;30.00;;;;;;;;;;5089372;28;20195;-62
2024/01/12 03:39:01;;;;;;;54.70;28.97;;;;;;;;;;5095519;28;20204;-62
2024/01/12 03:41:28;;;;;;;56.57;31.80;;;;;;;;;;5088975;28;20269;-63
2024/01/12 03:43:56;;;;;;;58.40;33.63;;;;;;;;;;5082371;28;20286;-62
2024/01/12 03:46:25;;;;;;;64.63;33.17;;;;;;;;;;5089444;28;20261;-63
2024/01/12 03:48:52;;;;;;;62.47;32.67;;;;;;;;;;5087370;28;20204;-62
2024/01/12 03:51:19;;;;;;;59.80;31.83;;;;;;;;;;5083407;28;20315;-63
2024/01/12 03:53:47;;;;;;;56.67;31.63;;;;;;;;;;5086574;28;20236;-62
2024/01/12 03:56:15;;;;;;;55.50;30.33;;;;;;;;;;5070523;28;20212;-62
2024/01/12 03:58:43;;;;;;;52.80;28.40;;;;;;;;;;5083796;28;20227;-62
2024/01/12 04:01:11;;;;;;;56.63;28.83;;;;;;;;;;5086286;28;20250;-62
2024/01/12 04:03:41;;;;;;;47.90;27.47;;;;;;;;;;5086658;28;20296;-62
2024/01/12 04:06:09;;;;;;;53.33;29.47;;;;;;;;;;5090251;28;21021;-63
2024/01/12 04:08:37;;;;;;;52.90;29.53;;;;;;;;;;5091514;28;20208;-62
2024/01/12 04:11:05;;;;;;;46.63;27.07;;;;;;;;;;5090974;28;20234;-62
2024/01/12 04:13:33;;;;;;;49.57;27.27;;;;;;;;;;5090013;28;20222;-62
2024/01/12 04:16:00;;;;;;;54.97;28.83;;;;;;;;;;5080086;28;20219;-62
2024/01/12 04:18:27;;;;;;;50.20;27.90;;;;;;;;;;5066967;28;20238;-63
2024/01/12 04:20:56;;;;;;;46.83;27.10;;;;;;;;;;5087871;28;20224;-63
2024/01/12 04:23:23;;;;;;;47.90;25.47;;;;;;;;;;5089293;28;20302;-62
2024/01/12 04:25:51;;;;;;;48.30;27.43;;;;;;;;;;5087759;28;20214;-63
2024/01/12 04:28:18;;;;;;;49.00;25.80;;;;;;;;;;5086453;28;20207;-62
2024/01/12 04:30:45;;;;;;;44.80;25.87;;;;;;;;;;5078461;28;20226;-62
2024/01/12 04:33:13;;;;;;;48.67;26.20;;;;;;;;;;5085860;28;20209;-62
2024/01/12 04:35:41;;;;;;;47.33;26.23;;;;;;;;;;5082342;28;20239;-61
2024/01/12 04:38:09;;;;;;;47.63;26.00;;;;;;;;;;5088949;28;20694;-62
2024/01/12 04:40:36;;;;;;;50.30;26.73;;;;;;;;;;5078476;28;20227;-64
2024/01/12 04:43:06;;;;;;;52.03;27.43;;;;;;;;;;5085849;28;20308;-61
2024/01/12 04:45:33;;;;;;;53.30;29.37;;;;;;;;;;5086920;28;20203;-62
2024/01/12 04:48:01;;;;;;;61.53;29.77;;;;;;;;;;5068481;28;20210;-63
2024/01/12 04:50:28;;;;;;;55.87;28.17;;;;;;;;;;5084887;28;20210;-60
2024/01/12 04:52:55;;;;;;;55.00;30.93;;;;;;;;;;5079475;28;20213;-61
2024/01/12 04:55:22;;;;;;;58.70;31.07;;;;;;;;;;5081940;28;20260;-61
2024/01/12 04:57:50;;;;;;;51.30;28.80;;;;;;;;;;5084673;28;20234;-61
2024/01/12 05:00:18;;;;;;;51.80;28.87;;;;;;;;;;5081312;28;20216;-61
2024/01/12 05:02:46;;;;;;;51.17;27.93;;;;;;;;;;5087710;28;20209;-63
2024/01/12 05:05:13;;;;;;;55.90;28.73;;;;;;;;;;5086377;28;20662;-61
2024/01/12 05:07:40;;;;;;;51.77;28.90;;;;;;;;;;5082628;28;20242;-63
2024/01/12 05:10:08;;;;;;;57.03;29.00;;;;;;;;;;5080809;28;20214;-62
2024/01/12 05:12:35;;;;;;;49.90;27.43;;;;;;;;;;5086007;28;20227;-63
2024/01/12 05:15:03;;;;;;;51.13;27.97;;;;;;;;;;5079595;28;20302;-62
2024/01/12 05:17:30;;;;;;;52.27;26.57;;;;;;;;;;5082444;28;20731;-62
2024/01/12 05:19:59;;;;;;;55.67;27.93;;;;;;;;;;5084913;28;20205;-62
2024/01/12 05:22:27;;;;;;;50.73;26.93;;;;;;;;;;5080886;28;20229;-62
2024/01/12 05:24:54;;;;;;;53.37;28.73;;;;;;;;;;5074120;28;20202;-61
2024/01/12 05:27:22;;;;;;;53.53;27.97;;;;;;;;;;5078523;28;20207;-62
2024/01/12 05:29:49;;;;;;;53.23;28.07;;;;;;;;;;5080188;28;20209;-61
2024/01/12 05:32:16;;;;;;;54.00;28.10;;;;;;;;;;5079303;28;20726;-62
2024/01/12 05:34:44;;;;;;;50.23;26.43;;;;;;;;;;5073057;28;20206;-61
2024/01/12 05:37:11;;;;;;;51.87;27.70;;;;;;;;;;5077880;28;20683;-63
2024/01/12 05:39:39;;;;;;;52.13;27.93;;;;;;;;;;5079515;28;20209;-63
2024/01/12 05:42:07;;;;;;;54.40;27.67;;;;;;;;;;5084290;28;20222;-63
2024/01/12 05:44:34;;;;;;;49.40;27.63;;;;;;;;;;5080360;28;20207;-62
2024/01/12 05:47:02;;;;;;;54.57;27.33;;;;;;;;;;5068522;28;20238;-62
2024/01/12 05:49:29;;;;;;;49.30;26.23;;;;;;;;;;5080235;28;20217;-62
2024/01/12 05:51:57;;;;;;;62.13;31.10;;;;;;;;;;5084755;28;20250;-63
2024/01/12 05:54:24;;;;;;;60.03;30.57;;;;;;;;;;5067237;28;21112;-63
2024/01/12 05:56:51;;;;;;;70.33;37.27;;;;;;;;;;5079589;28;20604;-64
2024/01/12 05:59:19;;;;;;;53.27;28.83;;;;;;;;;;5072155;28;20234;-62
2024/01/12 06:01:47;;;;;;;53.90;28.60;;;;;;;;;;5075733;28;20321;-62
2024/01/12 06:04:14;;;;;;;63.93;32.80;;;;;;;;;;5063467;28;20202;-62
2024/01/12 06:06:41;;;;;;;56.07;31.03;;;;;;;;;;5066308;28;20733;-62
2024/01/12 06:09:09;;;;;;;64.07;35.53;;;;;;;;;;5090338;28;20772;-62
2024/01/12 06:11:37;;;;;;;62.60;33.23;;;;;;;;;;5067513;28;20231;-62
2024/01/12 06:14:04;;;;;;;63.83;34.20;;;;;;;;;;5083950;28;20263;-62
2024/01/12 06:16:31;;;;;;;66.10;36.47;;;;;;;;;;5079684;28;20209;-63
2024/01/12 06:18:59;;;;;;;70.13;35.70;;;;;;;;;;5082189;28;20230;-64
2024/01/12 06:21:27;;;;;;;66.13;34.87;;;;;;;;;;5084850;28;20311;-64
2024/01/12 06:23:55;;;;;;;75.30;38.33;;;;;;;;;;5087032;28;20197;-64
2024/01/12 06:26:23;;;;;;;63.03;33.67;;;;;;;;;;5080029;28;20212;-62
2024/01/12 06:28:51;;;;;;;65.80;33.57;;;;;;;;;;5085937;28;20270;-61
2024/01/12 06:31:18;;;;;;;62.50;32.50;;;;;;;;;;5083603;28;20264;-63
2024/01/12 06:33:46;;;;;;;63.70;31.70;;;;;;;;;;5080534;28;20260;-61
2024/01/12 06:36:14;;;;;;;59.10;31.07;;;;;;;;;;5088071;28;20606;-63
2024/01/12 06:38:41;;;;;;;53.93;28.60;;;;;;;;;;5091258;28;20240;-63
2024/01/12 06:41:09;;;;;;;57.40;28.73;;;;;;;;;;5084182;28;20231;-63
2024/01/12 06:43:38;;;;;;;61.37;30.27;;;;;;;;;;5085751;28;20302;-63
2024/01/12 06:46:07;;;;;;;54.17;29.07;;;;;;;;;;5086200;28;20287;-63
2024/01/12 06:48:45;;;;;;;51.73;28.87;;;;;;;;;;5080136;28;20334;-63
2024/01/12 06:51:23;;;;;;;54.17;29.20;;;;;;;;;;5084909;28;20824;-63
2024/01/12 06:53:56;;;;;;;52.70;29.60;;;;;;;;;;5084467;28;20202;-64
2024/01/12 06:56:23;;;;;;;57.60;29.53;;;;;;;;;;5068302;28;20202;-63
2024/01/12 06:58:51;;;;;;;59.23;29.87;;;;;;;;;;5087331;28;20227;-63
2024/01/12 07:01:18;;;;;;;45.60;27.43;;;;;;;;;;5084580;28;20222;-62
2024/01/12 07:03:46;;;;;;;53.83;28.30;;;;;;;;;;5081700;28;20243;-64
2024/01/12 07:06:13;;;;;;;52.37;28.43;;;;;;;;;;5082332;28;20260;-63
2024/01/12 07:08:41;;;;;;;53.40;27.90;;;;;;;;;;5084352;28;20201;-62
2024/01/12 07:11:08;;;;;;;54.90;29.10;;;;;;;;;;5082798;28;20314;-62
2024/01/12 07:13:35;;;;;;;52.80;28.63;;;;;;;;;;5081080;28;20208;-62
2024/01/12 07:16:05;;;;;;;60.67;31.40;;;;;;;;;;5084627;28;20269;-61
2024/01/12 07:18:33;;;;;;;87.57;40.57;;;;;;;;;;5079783;28;20368;-62
2024/01/12 07:21:03;;;;;;;102.10;47.50;;;;;;;;;;5081914;28;20346;-62
2024/01/12 07:23:31;;;;;;;95.17;44.90;;;;;;;;;;5077573;28;20201;-62
2024/01/12 07:25:59;;;;;;;92.90;45.37;;;;;;;;;;5068610;28;20212;-62
2024/01/12 07:28:27;;;;;;;86.53;42.30;;;;;;;;;;5083645;28;20799;-62
2024/01/12 07:30:54;;;;;;;98.67;46.80;;;;;;;;;;5085712;28;20222;-62
2024/01/12 07:33:22;;;;;;;93.63;44.37;;;;;;;;;;5090409;28;20579;-63
2024/01/12 07:35:50;;;;;;;87.93;42.47;;;;;;;;;;5087700;28;20296;-63
2024/01/12 07:38:18;;;;;;;88.77;44.23;;;;;;;;;;5091653;28;21121;-63
2024/01/12 07:40:46;;;;;;;90.33;42.33;;;;;;;;;;5069910;28;20221;-62
2024/01/12 07:43:14;;;;;;;82.70;42.57;;;;;;;;;;5086986;28;20200;-63
2024/01/12 07:45:42;;;;;;;83.33;42.57;;;;;;;;;;5088261;28;20242;-63
2024/01/12 07:48:09;;;;;;;83.13;39.50;;;;;;;;;;5086965;28;20204;-63
2024/01/12 07:50:37;;;;;;;78.63;39.90;;;;;;;;;;5068890;28;20687;-63
2024/01/12 07:53:05;;;;;;;79.27;40.40;;;;;;;;;;5071350;28;20362;-62
2024/01/12 07:55:32;;;;;;;71.03;37.10;;;;;;;;;;5070592;28;20742;-61
2024/01/12 07:57:59;;;;;;;66.40;33.17;;;;;;;;;;5086162;28;20267;-62
2024/01/12 08:00:26;;;;;;;62.70;32.37;;;;;;;;;;5087562;28;20218;-63
2024/01/12 08:02:54;;;;;;;61.00;31.57;;;;;;;;;;5089053;28;20202;-64
2024/01/12 08:05:22;;;;;;;54.93;29.90;;;;;;;;;;5085969;28;20208;-61
2024/01/12 08:07:50;;;;;;;56.17;29.97;;;;;;;;;;5085409;28;20211;-61
2024/01/12 08:10:17;;;;;;;52.27;29.13;;;;;;;;;;5084352;28;20542;-62
2024/01/12 08:12:45;;;;;;;51.00;27.37;;;;;;;;;;5082431;28;20251;-61
2024/01/12 08:15:13;;;;;;;49.70;26.57;;;;;;;;;;5084413;28;20221;-63
2024/01/12 08:17:41;;;;;;;47.23;26.07;;;;;;;;;;5085282;28;20218;-63
2024/01/12 08:20:08;;;;;;;46.03;25.07;;;;;;;;;;5086676;28;20236;-62
2024/01/12 08:22:36;;;;;;;46.20;25.20;;;;;;;;;;5089170;28;20246;-62
2024/01/12 08:25:03;;;;;;;43.23;23.57;;;;;;;;;;5089851;28;20200;-62
2024/01/12 08:27:30;;;;;;;43.57;23.80;;;;;;;;;;5071965;28;20201;-63
2024/01/12 08:29:58;;;;;;;39.07;22.23;;;;;;;;;;5077232;28;20911;-62
2024/01/12 08:32:25;;;;;;;38.63;21.53;;;;;;;;;;5085809;28;20361;-62
2024/01/12 08:34:53;;;;;;;41.67;22.10;;;;;;;;;;5076394;28;20799;-63
2024/01/12 08:37:20;;;;;;;39.30;21.67;;;;;;;;;;5064902;28;20233;-63
2024/01/12 08:39:47;;;;;;;39.00;22.60;;;;;;;;;;5079726;28;20235;-62
2024/01/12 08:42:15;;;;;;;46.77;25.83;;;;;;;;;;5078265;28;20227;-62
2024/01/12 08:44:42;;;;;;;45.77;26.83;;;;;;;;;;5076355;28;20198;-63
2024/01/12 08:47:10;;;;;;;52.60;27.10;;;;;;;;;;5079184;28;20197;-62
2024/01/12 08:49:37;;;;;;;48.40;27.23;;;;;;;;;;5076750;28;20213;-64
2024/01/12 08:52:05;;;;;;;48.50;26.63;;;;;;;;;;5077712;28;20228;-62
2024/01/12 08:54:32;;;;;;;51.43;26.63;;;;;;;;;;5075391;28;20612;-62
2024/01/12 08:56:59;;;;;;;50.30;27.10;;;;;;;;;;5077215;28;20210;-61
2024/01/12 08:59:28;;;;;;;50.87;25.97;;;;;;;;;;5084957;28;20298;-62
2024/01/12 09:01:57;;;;;;;49.27;26.03;;;;;;;;;;5083661;28;20641;-62
2024/01/12 09:04:25;;;;;;;46.37;26.37;;;;;;;;;;5079710;28;20200;-62
2024/01/12 09:06:53;;;;;;;49.63;27.10;;;;;;;;;;5083447;28;20241;-62
2024/01/12 09:09:20;;;;;;;43.77;25.97;;;;;;;;;;5082558;28;20219;-62
2024/01/12 09:11:48;;;;;;;51.27;26.83;;;;;;;;;;5088863;28;20225;-61
2024/01/12 09:14:16;;;;;;;46.20;26.63;;;;;;;;;;5084905;28;20240;-63
2024/01/12 09:16:47;;;;;;;46.77;25.73;;;;;;;;;;5079217;28;20218;-64
2024/01/12 09:19:14;;;;;;;55.03;28.43;;;;;;;;;;5086370;28;20220;-64
2024/01/12 09:21:41;;;;;;;52.70;27.00;;;;;;;;;;5089737;28;20306;-64
2024/01/12 09:24:10;;;;;;;43.47;25.00;;;;;;;;;;5082802;28;20213;-63
2024/01/12 09:26:38;;;;;;;41.93;24.13;;;;;;;;;;5084934;28;20276;-63
2024/01/12 09:29:05;;;;;;;40.93;24.03;;;;;;;;;;5090561;28;20196;-63
2024/01/12 09:31:33;;;;;;;39.87;23.47;;;;;;;;;;5089547;28;20694;-63
2024/01/12 09:34:00;;;;;;;37.67;22.63;;;;;;;;;;5082464;28;20205;-64
2024/01/12 09:36:28;;;;;;;38.83;23.17;;;;;;;;;;5086302;28;20205;-63
2024/01/12 09:38:55;;;;;;;41.23;23.43;;;;;;;;;;5078023;28;20216;-63
2024/01/12 09:41:29;;;;;;;43.57;24.57;;;;;;;;;;5075441;28;20248;-63
2024/01/12 09:43:59;;;;;;;39.50;22.93;;;;;;;;;;5063573;28;20289;-62
2024/01/12 09:46:30;;;;;;;36.77;22.50;;;;;;;;;;5090985;28;20693;-65
2024/01/12 09:48:57;;;;;;;32.83;20.13;;;;;;;;;;5079802;28;20205;-62
2024/01/12 09:51:27;;;;;;;35.07;21.23;;;;;;;;;;5082115;28;20220;-61
2024/01/12 09:53:55;;;;;;;31.27;19.63;;;;;;;;;;5077971;28;20300;-63
2024/01/12 09:56:22;;;;;;;31.07;19.23;;;;;;;;;;5081278;28;20223;-62
2024/01/12 09:59:03;;;;;;;31.57;19.17;;;;;;;;;;5082790;28;20327;-64
2024/01/12 10:01:31;;;;;;;34.43;20.37;;;;;;;;;;5066572;28;20749;-63
2024/01/12 10:03:58;;;;;;;34.07;19.37;;;;;;;;;;5078116;28;20234;-62
2024/01/12 10:06:26;;;;;;;30.07;16.97;;;;;;;;;;5080715;28;20211;-62
2024/01/12 10:08:53;;;;;;;23.00;14.90;;;;;;;;;;5084059;28;20211;-62
2024/01/12 10:11:20;;;;;;;23.33;14.17;;;;;;;;;;5086229;28;20273;-64
2024/01/12 10:13:48;;;;;;;19.70;13.43;;;;;;;;;;5066955;28;20621;-64
2024/01/12 10:16:27;;;;;;;19.47;12.50;;;;;;;;;;5061306;28;20215;-65
2024/01/12 10:19:01;;;;;;;18.37;12.87;;;;;;;;;;5086579;28;20204;-65
2024/01/12 10:21:29;;;;;;;15.97;11.93;;;;;;;;;;5080750;28;20223;-64
2024/01/12 10:24:03;;;;;;;16.93;11.73;;;;;;;;;;5081353;28;20221;-63
2024/01/12 10:26:31;;;;;;;14.37;10.97;;;;;;;;;;5088018;28;20189;-63
2024/01/12 10:29:04;;;;;;;14.87;11.37;;;;;;;;;;5079940;28;20215;-63
2024/01/12 10:31:32;;;;;;;12.73;10.20;;;;;;;;;;5082038;28;20718;-62
2024/01/12 10:34:01;;;;;;;14.77;10.83;;;;;;;;;;5081388;28;20781;-64
2024/01/12 10:36:28;;;;;;;14.30;10.17;;;;;;;;;;5080527;28;20213;-64
2024/01/12 10:39:00;;;;;;;13.73;9.67;;;;;;;;;;5081835;28;20244;-64
2024/01/12 10:41:27;;;;;;;13.83;10.50;;;;;;;;;;5078887;28;20731;-63
2024/01/12 10:43:58;;;;;;;15.43;10.97;;;;;;;;;;5079452;28;20209;-65
2024/01/12 10:46:28;;;;;;;13.47;10.60;;;;;;;;;;5082280;28;20227;-64
2024/01/12 10:48:59;;;;;;;14.53;10.33;;;;;;;;;;5076057;28;20564;-62
2024/01/12 10:51:33;;;;;;;15.37;10.60;;;;;;;;;;5078486;28;20839;-63
2024/01/12 10:54:05;;;;;;;12.23;9.73;;;;;;;;;;5090598;28;20205;-63
2024/01/12 10:56:35;;;;;;;12.50;9.63;;;;;;;;;;5052693;28;20201;-63
2024/01/12 10:59:06;;;;;;;13.77;10.03;;;;;;;;;;5084957;28;20471;-62
2024/01/12 11:01:35;;;;;;;15.87;10.37;;;;;;;;;;5084561;28;20220;-63
2024/01/12 11:04:04;;;;;;;14.33;9.83;;;;;;;;;;5089054;28;20204;-63
2024/01/12 11:06:31;;;;;;;14.90;10.30;;;;;;;;;;5083396;28;20205;-62
2024/01/12 11:08:59;;;;;;;14.83;10.90;;;;;;;;;;5075275;28;20804;-64
2024/01/12 11:11:43;;;;;;;13.33;10.67;;;;;;;;;;5081917;28;20225;-61
2024/01/12 11:14:11;;;;;;;14.93;10.47;;;;;;;;;;5060221;28;20250;-62
2024/01/12 11:16:39;;;;;;;15.13;10.60;;;;;;;;;;5080306;28;20735;-62
2024/01/12 11:19:16;;;;;;;22.30;13.37;;;;;;;;;;5086221;28;20273;-62
2024/01/12 11:21:44;;;;;;;19.43;12.00;;;;;;;;;;5078489;28;20223;-61
2024/01/12 11:24:11;;;;;;;17.67;11.00;;;;;;;;;;5084729;28;20274;-62
2024/01/12 11:26:41;;;;;;;18.30;11.43;;;;;;;;;;5081611;28;20247;-63
2024/01/12 11:29:14;;;;;;;20.00;12.30;;;;;;;;;;5080741;28;20215;-62
2024/01/12 11:31:51;;;;;;;20.17;12.10;;;;;;;;;;5082822;28;20220;-62
2024/01/12 11:34:19;;;;;;;18.20;11.37;;;;;;;;;;5084249;28;20205;-63
2024/01/12 11:36:58;;;;;;;19.47;12.03;;;;;;;;;;5079678;28;20207;-64
2024/01/12 11:39:25;;;;;;;18.17;11.63;;;;;;;;;;5078473;28;20667;-63
2024/01/12 11:41:56;;;;;;;18.20;11.57;;;;;;;;;;5063049;28;21027;-63
2024/01/12 11:44:26;;;;;;;16.60;11.27;;;;;;;;;;5076616;28;20241;-63
2024/01/12 11:46:54;;;;;;;17.67;11.67;;;;;;;;;;5084805;28;20205;-63
2024/01/12 11:49:23;;;;;;;19.63;11.33;;;;;;;;;;5078463;28;20324;-63
2024/01/12 11:51:50;;;;;;;18.13;11.60;;;;;;;;;;5077788;28;20225;-64
2024/01/12 11:54:17;;;;;;;17.50;11.03;;;;;;;;;;5085063;28;20208;-63
2024/01/12 11:56:45;;;;;;;14.07;10.80;;;;;;;;;;5082635;28;20205;-64
2024/01/12 11:59:12;;;;;;;20.43;12.30;;;;;;;;;;5069088;28;20223;-62
2024/01/12 12:01:40;;;;;;;20.63;11.47;;;;;;;;;;5089172;28;20219;-62
2024/01/12 12:04:07;;;;;;;15.70;10.57;;;;;;;;;;5084696;28;20203;-62
2024/01/12 12:06:35;;;;;;;21.10;11.97;;;;;;;;;;5082693;28;20215;-64
2024/01/12 12:09:03;;;;;;;20.80;12.30;;;;;;;;;;5082330;28;20205;-64
2024/01/12 12:11:30;;;;;;;14.50;10.20;;;;;;;;;;5086538;28;20219;-63
2024/01/12 12:13:58;;;;;;;21.00;13.23;;;;;;;;;;5086716;28;20206;-62
2024/01/12 12:16:25;;;;;;;17.63;11.17;;;;;;;;;;5078162;28;20242;-63
2024/01/12 12:18:53;;;;;;;23.70;13.73;;;;;;;;;;5080989;28;20203;-62
2024/01/12 12:21:21;;;;;;;25.53;15.13;;;;;;;;;;5082347;28;20381;-63
2024/01/12 12:23:49;;;;;;;19.17;12.73;;;;;;;;;;5080859;28;20197;-63
2024/01/12 12:26:17;;;;;;;20.30;12.07;;;;;;;;;;5083511;28;20570;-63
2024/01/12 12:28:46;;;;;;;24.20;15.60;;;;;;;;;;5080957;28;20197;-64
2024/01/12 12:31:13;;;;;;;25.50;14.20;;;;;;;;;;5062006;28;20702;-62
2024/01/12 12:33:44;;;;;;;26.07;14.40;;;;;;;;;;5063737;28;20722;-63
2024/01/12 12:36:12;;;;;;;25.97;14.07;;;;;;;;;;5077130;28;20209;-62
2024/01/12 12:38:40;;;;;;;25.30;14.93;;;;;;;;;;5082206;28;20262;-63
2024/01/12 12:41:08;;;;;;;22.40;14.67;;;;;;;;;;5083353;28;20239;-63
2024/01/12 12:43:37;;;;;;;26.50;15.33;;;;;;;;;;5079949;28;20214;-63
2024/01/12 12:46:05;;;;;;;30.03;15.90;;;;;;;;;;5080738;28;20232;-62
2024/01/12 12:48:34;;;;;;;21.80;15.57;;;;;;;;;;5079646;28;20558;-63
2024/01/12 12:51:01;;;;;;;22.40;14.90;;;;;;;;;;5064899;28;20231;-64
2024/01/12 12:53:28;;;;;;;28.77;17.33;;;;;;;;;;5080758;28;20299;-61
2024/01/12 12:55:56;;;;;;;23.37;16.30;;;;;;;;;;5078865;28;20616;-63
2024/01/12 12:58:25;;;;;;;27.47;16.53;;;;;;;;;;5080224;28;20662;-63
2024/01/12 13:00:55;;;;;;;23.83;16.33;;;;;;;;;;5082900;28;20593;-64
2024/01/12 13:03:26;;;;;;;21.87;15.57;;;;;;;;;;5082605;28;20204;-63
2024/01/12 13:05:53;;;;;;;24.53;16.60;;;;;;;;;;5083937;28;20205;-63
2024/01/12 13:08:21;;;;;;;27.53;16.43;;;;;;;;;;5067883;28;20223;-63
2024/01/12 13:10:48;;;;;;;22.73;15.47;;;;;;;;;;5062549;28;20239;-62
2024/01/12 13:13:16;;;;;;;28.20;16.37;;;;;;;;;;5064433;28;20208;-63
2024/01/12 13:15:43;;;;;;;24.57;15.40;;;;;;;;;;5074946;28;20217;-62
2024/01/12 13:18:10;;;;;;;29.17;17.77;;;;;;;;;;5083949;28;20208;-64
2024/01/12 13:20:38;;;;;;;28.63;18.40;;;;;;;;;;5076137;28;20233;-62
2024/01/12 13:23:05;;;;;;;29.30;18.73;;;;;;;;;;5081666;28;20205;-62
2024/01/12 13:25:33;;;;;;;29.63;19.80;;;;;;;;;;5082570;28;20201;-62
2024/01/12 13:28:00;;;;;;;32.70;20.00;;;;;;;;;;5079677;28;20215;-62
2024/01/12 13:30:28;;;;;;;31.93;20.03;;;;;;;;;;5080404;28;20201;-62
2024/01/12 13:32:55;;;;;;;31.87;20.07;;;;;;;;;;5087357;28;20213;-63
2024/01/12 13:35:23;;;;;;;33.67;20.87;;;;;;;;;;5081774;28;20207;-62
2024/01/12 13:37:50;;;;;;;29.83;19.53;;;;;;;;;;5081704;28;20682;-63
2024/01/12 13:40:18;;;;;;;31.57;20.67;;;;;;;;;;5085233;28;20225;-61
2024/01/12 13:42:47;;;;;;;30.60;19.97;;;;;;;;;;5082770;28;20197;-62
2024/01/12 13:45:15;;;;;;;37.67;22.53;;;;;;;;;;5084878;28;20200;-61
2024/01/12 13:47:42;;;;;;;31.47;19.23;;;;;;;;;;5083080;28;20251;-62
2024/01/12 13:50:10;;;;;;;28.87;19.40;;;;;;;;;;5071873;28;21603;-63
2024/01/12 13:52:38;;;;;;;29.53;19.33;;;;;;;;;;5081383;28;20290;-64
2024/01/12 13:55:05;;;;;;;29.27;18.67;;;;;;;;;;5072474;28;20196;-62
2024/01/12 13:57:33;;;;;;;32.47;19.70;;;;;;;;;;5076522;28;20209;-63
2024/01/12 14:00:00;;;;;;;42.17;30.17;;;;;;;;;;5077495;28;20239;-63
2024/01/12 14:02:29;;;;;;;32.33;19.80;;;;;;;;;;5076941;28;20248;-62
2024/01/12 14:04:56;;;;;;;27.73;19.17;;;;;;;;;;5076027;28;20228;-64
2024/01/12 14:07:41;;;;;;;28.20;18.77;;;;;;;;;;5083058;28;20673;-64
2024/01/12 14:10:09;;;;;;;32.27;19.53;;;;;;;;;;5073544;28;20681;-63
2024/01/12 14:12:37;;;;;;;33.83;20.60;;;;;;;;;;5072330;28;20229;-63
2024/01/12 14:15:04;;;;;;;29.93;19.60;;;;;;;;;;5057426;28;20287;-63
2024/01/12 14:17:33;;;;;;;29.47;19.23;;;;;;;;;;5073537;28;20217;-63
2024/01/12 14:20:00;;;;;;;34.67;19.57;;;;;;;;;;5076367;28;20994;-64